Time;durP1;ratioP1;P1;durP2;ratioP2;P2;SDS_P1;SDS_P2;PMS_P1;PMS_P2;Temp;Humidity;BMP_temperature;BMP_pressure;BME280_temperature;BME280_humidity;BME280_pressure;Samples;Min_cycle;Max_cycle;Signal;HPM_P1;HPM_P2
2022/01/19 00:03:43;;;;;;;36.67;11.57;;;;;;;3.35;98.03;103130.34;15271516;19;20013;-68
2022/01/19 00:08:46;;;;;;;38.03;10.60;;;;;;;3.40;98.33;103122.06;15272299;19;20014;-68
2022/01/19 00:13:49;;;;;;;29.42;10.70;;;;;;;3.38;98.89;103128.78;15274986;19;20925;-69
2022/01/19 00:18:51;;;;;;;36.80;11.80;;;;;;;3.30;98.91;103136.84;15270823;19;20413;-68
2022/01/19 00:23:53;;;;;;;29.80;11.25;;;;;;;3.38;98.74;103152.09;15270034;19;20010;-69
2022/01/19 00:28:55;;;;;;;31.77;10.63;;;;;;;3.35;98.70;103143.28;15271565;19;20018;-69
2022/01/19 00:33:56;;;;;;;45.92;11.73;;;;;;;3.27;99.18;103121.03;15271532;19;20408;-67
2022/01/19 00:38:58;;;;;;;31.67;8.57;;;;;;;3.38;99.25;103102.88;15271018;19;20032;-69
2022/01/19 00:44:00;;;;;;;31.35;7.63;;;;;;;3.31;99.31;103072.97;15267290;19;20474;-68
2022/01/19 00:49:02;;;;;;;31.88;8.77;;;;;;;3.28;99.25;103068.44;15267893;19;20022;-69
2022/01/19 00:54:03;;;;;;;23.98;8.95;;;;;;;3.22;99.86;103073.13;15275318;19;20868;-68
2022/01/19 00:59:05;;;;;;;25.85;8.85;;;;;;;3.31;99.20;103062.63;15281195;19;20015;-68
2022/01/19 01:04:07;;;;;;;31.15;9.40;;;;;;;3.24;99.48;103060.28;15281946;19;20018;-71
2022/01/19 01:09:09;;;;;;;28.08;7.93;;;;;;;3.15;99.95;103050.06;15281663;19;20018;-67
2022/01/19 01:19:15;;;;;;;28.95;8.57;;;;;;;3.17;100.00;103020.97;15280612;19;20031;-66
2022/01/19 01:24:17;;;;;;;31.58;8.07;;;;;;;3.15;100.00;103019.00;15283780;19;20006;-67
2022/01/19 01:29:19;;;;;;;30.42;7.55;;;;;;;3.14;100.00;103010.34;15279221;19;20031;-68
2022/01/19 01:34:20;;;;;;;25.05;7.72;;;;;;;3.18;100.00;102996.88;15277757;19;20077;-67
2022/01/19 01:39:22;;;;;;;27.80;8.35;;;;;;;3.15;100.00;102967.22;15278849;19;20014;-67
2022/01/19 01:44:24;;;;;;;28.38;8.55;;;;;;;3.19;100.00;102957.25;15279861;19;20018;-68
2022/01/19 01:49:44;;;;;;;28.58;9.10;;;;;;;3.10;100.00;102945.25;15277075;19;20006;-68
2022/01/19 01:54:48;;;;;;;25.23;8.10;;;;;;;3.15;100.00;102916.38;15279194;19;20417;-68
2022/01/19 01:59:50;;;;;;;28.80;8.63;;;;;;;3.07;100.00;102896.72;15275925;19;20031;-67
2022/01/19 02:05:16;;;;;;;26.05;9.15;;;;;;;3.04;100.00;102911.09;15170858;19;2004327;-68
2022/01/19 02:26:59;;;;;;;26.33;10.10;;;;;;;3.03;99.94;102832.53;15275118;19;20836;-68
2022/01/19 02:53:18;;;;;;;26.73;9.70;;;;;;;2.95;100.00;102736.16;15273307;19;20014;-68
2022/01/19 02:58:22;;;;;;;33.00;11.18;;;;;;;3.05;100.00;102713.56;15273218;19;20113;-67
2022/01/19 03:08:48;;;;;;;32.92;10.40;;;;;;;3.01;99.77;102702.97;15275042;19;20014;-67
2022/01/19 03:13:53;;;;;;;39.17;11.05;;;;;;;2.97;100.00;102697.44;15273185;19;20007;-68
2022/01/19 03:18:55;;;;;;;36.60;10.23;;;;;;;2.91;99.82;102681.44;15269899;19;20018;-67
2022/01/19 03:23:57;;;;;;;33.17;10.65;;;;;;;2.94;99.70;102655.81;15273399;19;20030;-68
2022/01/19 03:28:59;;;;;;;31.15;11.18;;;;;;;2.88;100.00;102637.22;15270722;19;20014;-67
2022/01/19 03:34:01;;;;;;;33.00;11.07;;;;;;;2.89;100.00;102639.94;15271123;19;20020;-68
2022/01/19 03:39:04;;;;;;;28.58;10.25;;;;;;;2.81;100.00;102633.25;15270821;19;20055;-67
2022/01/19 03:44:05;;;;;;;36.50;11.15;;;;;;;2.69;100.00;102624.50;15270145;19;20912;-67
2022/01/19 03:49:11;;;;;;;32.03;10.77;;;;;;;2.61;100.00;102632.59;15271892;19;20066;-67
2022/01/19 03:54:13;;;;;;;28.85;9.55;;;;;;;2.54;100.00;102625.13;15271759;19;20014;-68
2022/01/19 03:59:15;;;;;;;32.67;10.95;;;;;;;2.54;100.00;102625.13;15270872;19;20014;-68
2022/01/19 04:04:44;;;;;;;30.15;10.27;;;;;;;2.34;100.00;102607.13;15272830;19;20019;-67
2022/01/19 04:09:58;;;;;;;32.60;10.27;;;;;;;2.21;100.00;102598.41;15271397;19;20027;-68
2022/01/19 04:15:00;;;;;;;29.20;9.88;;;;;;;2.11;100.00;102598.44;15269319;19;20010;-68
2022/01/19 04:20:03;;;;;;;39.47;10.02;;;;;;;1.99;100.00;102592.28;15269927;19;20006;-68
2022/01/19 04:25:05;;;;;;;23.48;9.13;;;;;;;1.89;100.00;102598.38;15271113;19;20015;-68
2022/01/19 04:30:11;;;;;;;25.15;9.85;;;;;;;1.84;100.00;102594.53;15281114;19;20082;-67
2022/01/19 04:35:22;;;;;;;24.10;9.57;;;;;;;1.69;100.00;102592.47;15178392;19;2004279;-67
2022/01/19 05:01:53;;;;;;;41.17;12.50;;;;;;;1.31;100.00;102566.09;15278668;19;20014;-68
2022/01/19 05:07:23;;;;;;;30.30;10.98;;;;;;;1.32;100.00;102554.97;15279565;19;20022;-68
2022/01/19 05:17:46;;;;;;;33.60;10.88;;;;;;;1.13;100.00;102550.88;15283544;19;20344;-67
2022/01/19 05:22:47;;;;;;;31.98;10.05;;;;;;;1.13;100.00;102537.09;15284222;19;20022;-67
2022/01/19 05:27:52;;;;;;;42.65;12.05;;;;;;;1.03;100.00;102535.41;15280326;19;20023;-66
2022/01/19 05:32:55;;;;;;;38.33;10.90;;;;;;;1.05;100.00;102526.09;15280320;19;20546;-67
2022/01/19 05:37:56;;;;;;;32.28;10.65;;;;;;;1.11;100.00;102515.41;15278825;19;20023;-67
2022/01/19 05:43:17;;;;;;;51.40;11.73;;;;;;;1.19;100.00;102496.31;15284134;19;20015;-66
2022/01/19 05:48:19;;;;;;;28.17;10.93;;;;;;;1.16;100.00;102499.53;15279589;19;20006;-67
2022/01/19 05:53:25;;;;;;;44.92;12.80;;;;;;;1.23;100.00;102483.78;15278798;19;20015;-67
2022/01/19 05:58:27;;;;;;;38.22;13.60;;;;;;;1.28;100.00;102475.53;15278182;19;20751;-66
2022/01/19 06:03:32;;;;;;;45.15;15.05;;;;;;;1.39;100.00;102464.38;15277719;19;20355;-66
2022/01/19 06:08:59;;;;;;;43.40;16.15;;;;;;;1.43;100.00;102461.28;15275887;19;20016;-67
2022/01/19 06:14:01;;;;;;;42.35;14.90;;;;;;;1.49;100.00;102447.97;15277879;19;20018;-67
2022/01/19 06:19:03;;;;;;;46.05;15.18;;;;;;;1.54;100.00;102433.72;15275834;19;20014;-67
2022/01/19 06:24:05;;;;;;;48.60;16.75;;;;;;;1.64;100.00;102427.63;15276026;19;20411;-68
2022/01/19 06:29:07;;;;;;;41.95;15.90;;;;;;;1.68;100.00;102430.59;15275768;19;20006;-67
2022/01/19 06:34:09;;;;;;;55.70;19.85;;;;;;;1.82;100.00;102425.56;15277884;19;20021;-67
2022/01/19 06:39:29;;;;;;;54.45;18.60;;;;;;;1.86;100.00;102413.06;15277253;19;20026;-67
2022/01/19 06:44:39;;;;;;;61.72;20.80;;;;;;;1.85;100.00;102393.16;15275434;19;20094;-66
2022/01/19 06:49:41;;;;;;;49.50;18.02;;;;;;;1.91;100.00;102385.88;15270951;19;20042;-67
2022/01/19 06:54:45;;;;;;;47.53;19.38;;;;;;;1.98;100.00;102376.91;15275558;19;20030;-67
2022/01/19 06:59:51;;;;;;;55.08;20.60;;;;;;;2.03;100.00;102373.00;15273838;19;20010;-67
2022/01/19 07:05:00;;;;;;;68.15;21.25;;;;;;;2.03;100.00;102362.69;15275063;19;20015;-69
2022/01/19 07:10:31;;;;;;;58.70;20.00;;;;;;;2.07;100.00;102361.22;15170234;19;2004589;-70
2022/01/19 07:15:36;;;;;;;54.63;19.77;;;;;;;2.08;100.00;102350.09;15274762;19;20471;-69
2022/01/19 07:20:39;;;;;;;55.22;21.40;;;;;;;2.08;100.00;102334.59;15263193;19;20486;-69
2022/01/19 07:25:41;;;;;;;57.08;20.27;;;;;;;2.09;100.00;102332.13;15270294;19;20117;-69
2022/01/19 07:30:43;;;;;;;60.45;20.80;;;;;;;2.12;100.00;102324.63;15272619;19;20138;-68
2022/01/19 07:35:50;;;;;;;51.60;19.83;;;;;;;2.11;100.00;102325.38;15272168;19;20034;-68
2022/01/19 07:40:53;;;;;;;56.95;20.60;;;;;;;2.12;100.00;102318.56;15270069;19;20030;-68
2022/01/19 07:45:56;;;;;;;50.03;19.80;;;;;;;-147.53;100.00;102323.41;15267620;19;20498;-68
2022/01/19 07:51:24;;;;;;;53.97;19.08;;;;;;;2.24;100.00;102319.47;15269267;19;20095;-69
2022/01/19 07:56:44;;;;;;;51.42;20.10;;;;;;;2.22;100.00;102317.56;15268769;19;20011;-69
2022/01/19 08:02:04;;;;;;;53.85;20.50;;;;;;;2.38;100.00;102323.09;15273280;19;20053;-69
2022/01/19 08:07:26;;;;;;;40.60;19.58;;;;;;;2.34;100.00;102309.81;15286827;19;20020;-68
2022/01/19 08:12:28;;;;;;;47.92;19.35;;;;;;;2.40;100.00;102295.69;15283944;19;20391;-68
2022/01/19 08:17:31;;;;;;;54.28;21.20;;;;;;;2.34;99.89;102286.56;15277836;19;20034;-69
2022/01/19 08:22:33;;;;;;;50.00;19.85;;;;;;;2.32;99.18;102282.97;15277846;19;20040;-68
2022/01/19 08:27:53;;;;;;;50.33;21.98;;;;;;;2.23;99.13;102276.31;15274102;19;20015;-68
2022/01/19 08:33:02;;;;;;;54.38;19.70;;;;;;;2.22;99.41;102268.44;15285290;19;20022;-68
2022/01/19 08:38:23;;;;;;;44.53;19.35;;;;;;;2.33;98.83;102264.06;15285420;19;20018;-68
2022/01/19 08:43:36;;;;;;;41.22;19.75;;;;;;;2.21;98.55;102249.47;15284105;19;20542;-68
2022/01/19 08:48:39;;;;;;;45.45;18.67;;;;;;;2.18;98.11;102244.06;15282207;19;20018;-67
2022/01/19 08:54:05;;;;;;;41.63;19.40;;;;;;;2.12;98.29;102223.81;15284600;19;20019;-68
2022/01/19 08:59:10;;;;;;;49.05;22.42;;;;;;;2.08;98.00;102218.31;15281363;19;20021;-68
2022/01/19 09:04:12;;;;;;;45.95;20.70;;;;;;;2.05;98.06;102218.09;15285210;19;20034;-68
2022/01/19 09:09:13;;;;;;;36.78;18.00;;;;;;;2.02;97.99;102204.94;15277515;19;20039;-67
2022/01/19 09:14:16;;;;;;;37.78;19.13;;;;;;;1.92;96.85;102201.69;15281694;19;20563;-67
2022/01/19 09:19:19;;;;;;;36.65;18.23;;;;;;;1.86;97.02;102190.91;15280895;19;20507;-67
2022/01/19 09:24:21;;;;;;;34.17;18.50;;;;;;;1.97;96.83;102203.69;15281931;19;20377;-68
2022/01/19 09:29:22;;;;;;;41.78;20.58;;;;;;;1.86;96.60;102184.81;15276327;19;20376;-68
2022/01/19 09:34:24;;;;;;;36.88;19.83;;;;;;;1.94;97.13;102179.44;15281656;19;20042;-68
2022/01/19 09:39:26;;;;;;;45.13;22.05;;;;;;;1.91;96.70;102158.53;15280871;19;20090;-68
2022/01/19 09:44:29;;;;;;;42.92;22.08;;;;;;;1.92;96.95;102157.78;15281832;19;20021;-68
2022/01/19 09:49:31;;;;;;;40.60;21.67;;;;;;;1.98;96.46;102144.38;15278644;19;20021;-68
2022/01/19 09:54:33;;;;;;;45.22;21.25;;;;;;;2.03;96.64;102137.88;15280877;19;20023;-68
2022/01/19 09:59:35;;;;;;;44.13;21.48;;;;;;;2.09;96.87;102132.28;15278829;19;20010;-68
2022/01/19 10:04:42;;;;;;;39.97;21.38;;;;;;;2.23;96.62;102117.75;15279887;19;20071;-69
2022/01/19 10:09:59;;;;;;;41.95;21.30;;;;;;;2.28;96.76;102104.38;15279212;19;20039;-67
2022/01/19 10:20:22;;;;;;;;;;;;;;;2.36;96.98;102098.84;15177859;19;2004279;-65
2022/01/19 10:25:51;;;;;;;38.63;18.83;;;;;;;2.52;96.74;102075.88;15278853;19;19929;-67
2022/01/19 10:30:53;;;;;;;39.92;18.90;;;;;;;2.48;96.33;102055.78;15277670;19;20495;-66
2022/01/19 10:35:57;;;;;;;45.80;18.25;;;;;;;2.48;96.76;102048.03;15279955;19;20022;-67
2022/01/19 10:40:59;;;;;;;45.78;18.35;;;;;;;2.56;96.64;102028.75;15278054;19;20007;-67
2022/01/19 10:46:21;;;;;;;46.38;18.00;;;;;;;2.58;96.54;102015.94;15278801;19;20014;-68
2022/01/19 10:51:23;;;;;;;45.83;21.38;;;;;;;2.59;96.83;102008.28;15277581;19;20185;-68
2022/01/19 10:56:29;;;;;;;46.10;20.02;;;;;;;2.62;96.75;102010.19;15277187;19;20014;-67
2022/01/19 11:01:53;;;;;;;47.30;18.80;;;;;;;2.65;96.82;101994.88;15276930;19;20027;-69
2022/01/19 11:07:16;;;;;;;39.20;16.58;;;;;;;2.71;96.64;101971.13;15275790;19;20015;-69
2022/01/19 11:12:19;;;;;;;50.38;21.33;;;;;;;2.74;96.75;101955.81;15276128;19;20530;-66
2022/01/19 11:17:21;;;;;;;42.58;18.98;;;;;;;2.83;97.15;101946.09;15273324;19;20628;-67
2022/01/19 11:22:28;;;;;;;45.85;19.17;;;;;;;2.87;96.42;101942.91;15275631;19;20027;-67
2022/01/19 11:27:38;;;;;;;53.75;22.02;;;;;;;2.91;96.12;101919.06;15276770;19;20082;-68
2022/01/19 11:32:41;;;;;;;52.65;20.50;;;;;;;2.95;96.53;101914.97;15275161;19;20309;-68
2022/01/19 11:37:44;;;;;;;45.33;20.73;;;;;;;3.00;96.03;101898.94;15276471;19;20022;-67
2022/01/19 11:42:46;;;;;;;55.33;22.27;;;;;;;2.99;95.77;101893.69;15274706;19;20018;-67
2022/01/19 11:48:07;;;;;;;51.05;22.55;;;;;;;3.05;95.66;101883.72;15274248;19;20031;-65
2022/01/19 11:53:11;;;;;;;53.72;21.50;;;;;;;3.14;95.59;101865.31;15272041;19;20554;-69
2022/01/19 11:58:20;;;;;;;47.38;21.90;;;;;;;3.16;95.41;101849.06;15273990;19;20407;-68
2022/01/19 12:03:28;;;;;;;47.42;20.75;;;;;;;3.24;94.87;101831.44;15274260;19;20011;-68
2022/01/19 12:08:55;;;;;;;53.17;22.17;;;;;;;3.21;95.07;101825.16;15273138;19;20015;-68
2022/01/19 12:14:13;;;;;;;49.22;21.75;;;;;;;3.14;95.08;101811.84;15273516;19;20010;-68
2022/01/19 12:19:19;;;;;;;49.63;22.50;;;;;;;3.10;95.40;101802.09;15271230;19;20836;-69
2022/01/19 12:24:30;;;;;;;62.50;21.98;;;;;;;3.14;95.39;101801.50;15272565;19;20035;-67
2022/01/19 12:29:37;;;;;;;57.63;23.13;;;;;;;3.04;95.24;101780.13;15272210;19;20031;-69
2022/01/19 12:34:45;;;;;;;56.35;24.77;;;;;;;3.03;95.15;101767.97;15272558;19;20404;-67
2022/01/19 12:39:48;;;;;;;53.33;22.27;;;;;;;3.13;95.27;101752.22;15271940;19;20364;-68
2022/01/19 12:44:55;;;;;;;57.90;21.27;;;;;;;3.13;95.30;101739.28;15273244;19;20078;-68
2022/01/19 12:50:08;;;;;;;56.35;21.80;;;;;;;3.06;95.70;101724.16;15279023;19;20039;-69
2022/01/19 12:55:15;;;;;;;56.45;22.23;;;;;;;3.06;96.22;101712.09;15288068;19;20031;-68
2022/01/19 13:00:35;;;;;;;50.38;20.08;;;;;;;3.03;96.43;101706.75;15283941;19;20097;-68
2022/01/19 13:05:45;;;;;;;46.17;21.00;;;;;;;2.97;96.82;101704.69;15283406;19;20025;-68
2022/01/19 13:10:50;;;;;;;55.47;22.23;;;;;;;2.94;97.12;101693.25;15283616;19;20031;-68
2022/01/19 13:15:55;;;;;;;59.17;24.70;;;;;;;2.98;97.34;101683.16;15288002;19;20074;-68
2022/01/19 13:21:03;;;;;;;68.15;27.75;;;;;;;2.97;97.14;101675.31;15281052;19;20089;-69
2022/01/19 13:26:12;;;;;;;62.40;25.15;;;;;;;3.05;97.13;101637.88;15284053;19;20569;-69
2022/01/19 13:31:18;;;;;;;56.77;23.03;;;;;;;3.13;96.72;101635.75;15280535;19;20070;-68
2022/01/19 13:36:33;;;;;;;60.45;26.30;;;;;;;2.97;96.79;101634.84;15285898;19;20024;-69
2022/01/19 13:41:42;;;;;;;57.90;23.35;;;;;;;3.03;97.15;101617.88;15280510;19;20042;-69
2022/01/19 13:46:43;;;;;;;62.05;23.83;;;;;;;2.98;97.18;101615.91;15281912;19;20194;-68
2022/01/19 13:51:45;;;;;;;78.95;29.00;;;;;;;2.98;97.42;101596.91;15279253;19;20035;-68
2022/01/19 13:56:59;;;;;;;71.75;27.58;;;;;;;2.99;97.44;101599.59;15280600;19;20957;-68
2022/01/19 14:02:13;;;;;;;59.63;25.77;;;;;;;2.95;97.65;101576.91;15279734;19;20085;-67
2022/01/19 14:07:16;;;;;;;61.60;27.02;;;;;;;2.98;98.17;101578.78;15282083;19;20940;-67
2022/01/19 14:12:19;;;;;;;63.90;24.98;;;;;;;2.92;98.57;101566.38;15282417;19;20022;-68
2022/01/19 14:17:25;;;;;;;61.42;25.27;;;;;;;2.88;99.19;101551.47;15263506;19;20039;-69
2022/01/19 14:22:29;;;;;;;70.68;27.08;;;;;;;2.85;99.76;101548.69;15263131;19;20022;-90
2022/01/19 14:27:54;;;;;;;64.35;26.90;;;;;;;2.79;100.00;101530.22;15293559;19;20527;-91
2022/01/19 14:33:16;;;;;;;75.00;26.83;;;;;;;2.80;100.00;101519.97;15288255;19;20579;-91
2022/01/19 14:38:30;;;;;;;70.13;26.77;;;;;;;2.81;100.00;101513.13;15292028;19;20089;-91
2022/01/19 14:43:47;;;;;;;71.55;27.33;;;;;;;2.80;100.00;101516.50;15283711;19;20023;-90
2022/01/19 14:48:56;;;;;;;62.92;26.33;;;;;;;2.87;100.00;101490.19;15285688;19;20504;-91
2022/01/19 14:54:01;;;;;;;69.80;25.75;;;;;;;2.90;100.00;101489.47;15284763;19;20010;-91
2022/01/19 14:59:07;;;;;;;65.32;26.00;;;;;;;2.95;99.65;101483.75;15287080;19;20039;-91
2022/01/19 15:04:11;;;;;;;66.40;25.85;;;;;;;3.10;99.10;101488.94;15280970;19;20042;-92
2022/01/19 15:09:13;;;;;;;67.72;25.08;;;;;;;3.08;98.99;101487.06;15282521;19;20014;-90
2022/01/19 15:14:15;;;;;;;67.25;24.90;;;;;;;3.08;98.70;101487.06;15279113;19;20019;-91
2022/01/19 15:19:17;;;;;;;52.95;22.27;;;;;;;3.15;98.50;101484.03;15285583;19;20029;-90
2022/01/19 15:24:19;;;;;;;60.80;24.83;;;;;;;3.15;98.75;101490.13;15279323;19;20054;-91
2022/01/19 15:29:20;;;;;;;60.88;25.25;;;;;;;3.09;99.88;101474.25;15282956;19;20039;-90
2022/01/19 15:34:22;;;;;;;54.17;23.23;;;;;;;3.10;100.00;101481.19;15284240;19;20017;-91
2022/01/19 15:39:24;;;;;;;54.17;23.70;;;;;;;3.12;100.00;101473.50;15285073;19;20018;-91
2022/01/19 15:44:26;;;;;;;57.47;23.85;;;;;;;3.12;100.00;101473.50;15287875;19;20250;-94
2022/01/19 15:49:28;;;;;;;60.40;23.80;;;;;;;3.13;100.00;101454.59;15289603;19;20022;-92
2022/01/19 15:54:32;;;;;;;60.35;24.05;;;;;;;3.07;100.00;101462.91;15289574;19;20022;-92
2022/01/19 15:59:41;;;;;;;53.72;23.48;;;;;;;3.11;100.00;101451.94;15295032;19;20026;-92
2022/01/19 16:04:43;;;;;;;60.47;22.15;;;;;;;3.07;100.00;101457.72;15293847;19;20014;-91
2022/01/19 16:10:07;;;;;;;56.00;22.10;;;;;;;3.10;100.00;101444.06;15261778;19;20011;-92
2022/01/19 16:15:29;;;;;;;61.67;22.60;;;;;;;3.09;100.00;101437.09;15193276;19;2004338;-92
2022/01/19 16:20:36;;;;;;;55.42;22.98;;;;;;;3.11;100.00;101435.53;15293456;19;20014;-88
2022/01/19 16:31:03;;;;;;;;;;;;;;;3.23;100.00;101425.88;15308931;19;20014;-94
2022/01/19 16:36:28;;;;;;;54.25;20.85;;;;;;;3.15;100.00;101442.63;15332491;19;19936;-94
2022/01/19 16:41:47;;;;;;;47.80;19.42;;;;;;;3.16;100.00;101440.13;15336671;19;20046;-94
2022/01/19 16:46:53;;;;;;;58.13;22.63;;;;;;;3.19;100.00;101418.72;15324317;19;20019;-93
2022/01/19 16:51:55;;;;;;;50.35;21.98;;;;;;;3.17;100.00;101416.03;15294325;19;20054;-68
2022/01/19 16:56:57;;;;;;;46.83;18.73;;;;;;;3.29;100.00;101420.16;15279417;19;20015;-68
2022/01/19 17:01:58;;;;;;;45.72;19.13;;;;;;;3.27;100.00;101422.66;15286268;19;20073;-68
2022/01/19 17:07:00;;;;;;;45.80;19.98;;;;;;;3.29;100.00;101405.50;15278387;19;20054;-69
2022/01/19 17:12:02;;;;;;;49.17;20.52;;;;;;;3.29;100.00;101408.09;15282209;19;20022;-67
2022/01/19 17:17:24;;;;;;;37.00;17.52;;;;;;;3.41;100.00;101406.97;15276780;19;20011;-68
2022/01/19 17:22:26;;;;;;;42.75;18.60;;;;;;;3.38;100.00;101405.13;15281515;19;20381;-68
2022/01/19 17:27:28;;;;;;;39.47;19.35;;;;;;;3.42;100.00;101398.41;15279301;19;20018;-68
2022/01/19 17:32:30;;;;;;;42.90;19.30;;;;;;;-147.53;100.00;57128.34;15278304;19;20749;-69
2022/01/19 17:37:31;;;;;;;42.80;20.20;;;;;;;-147.53;100.00;57128.34;15270904;19;20063;-67
2022/01/19 17:42:33;;;;;;;44.35;17.80;;;;;;;-147.53;100.00;57128.34;15273710;19;20035;-68
2022/01/19 17:47:48;;;;;;;45.45;20.35;;;;;;;-147.53;100.00;57128.34;15278687;19;20982;-68
2022/01/19 17:52:52;;;;;;;40.60;17.10;;;;;;;-147.53;100.00;57128.34;15275689;19;20019;-68
2022/01/19 17:57:54;;;;;;;42.95;17.83;;;;;;;-147.53;100.00;57128.34;15255888;19;20022;-68
2022/01/19 18:02:55;;;;;;;37.80;16.23;;;;;;;-147.53;100.00;57128.34;15241928;19;20470;-67
2022/01/19 18:07:57;;;;;;;42.50;16.85;;;;;;;-147.53;100.00;57128.34;15251903;19;20334;-67
2022/01/19 18:13:00;;;;;;;37.53;15.85;;;;;;;-147.53;100.00;57128.34;15272941;19;20493;-68
2022/01/19 18:18:03;;;;;;;40.50;16.00;;;;;;;-147.53;100.00;57128.34;15273188;19;20022;-67
2022/01/19 18:23:09;;;;;;;29.35;14.40;;;;;;;-147.53;100.00;57128.34;15235098;19;20014;-67
2022/01/19 18:28:11;;;;;;;36.13;14.32;;;;;;;-147.53;100.00;57128.34;15250358;19;20038;-67
2022/01/19 18:33:15;;;;;;;33.78;12.93;;;;;;;-147.53;100.00;57128.34;15266539;19;20024;-67
2022/01/19 18:38:22;;;;;;;33.05;13.02;;;;;;;-147.53;100.00;57128.34;15273526;19;20014;-68
2022/01/19 18:43:24;;;;;;;32.22;12.80;;;;;;;-147.53;100.00;57128.34;15269634;19;20030;-68
2022/01/19 18:48:27;;;;;;;47.42;17.08;;;;;;;-147.53;100.00;57128.34;15268431;19;20409;-67
2022/01/19 18:53:29;;;;;;;31.25;12.43;;;;;;;-147.53;100.00;57128.34;15271455;19;20026;-68
2022/01/19 18:58:31;;;;;;;32.38;11.15;;;;;;;-147.53;100.00;57128.34;15275623;19;20081;-68
2022/01/19 19:03:32;;;;;;;31.10;9.60;;;;;;;-147.53;100.00;57128.34;15273979;19;20027;-67
2022/01/19 19:08:34;;;;;;;27.05;9.68;;;;;;;-147.53;100.00;57128.34;15272248;19;20014;-68
2022/01/19 19:13:36;;;;;;;24.67;7.05;;;;;;;-147.53;100.00;57128.34;15272931;19;20474;-68
2022/01/19 19:18:37;;;;;;;28.17;5.80;;;;;;;-147.53;100.00;57128.34;15270436;19;20102;-67
2022/01/19 19:23:39;;;;;;;25.10;5.70;;;;;;;-147.53;100.00;57128.34;15273247;19;20015;-68
2022/01/19 19:28:41;;;;;;;23.85;5.47;;;;;;;-147.53;100.00;57128.34;15272416;19;20042;-67
2022/01/19 19:33:42;;;;;;;25.00;4.05;;;;;;;-147.53;100.00;57128.34;15269103;19;20026;-68
2022/01/19 19:38:44;;;;;;;26.33;4.68;;;;;;;-147.53;100.00;57128.34;15271598;19;20015;-68
2022/01/19 19:43:47;;;;;;;14.98;2.97;;;;;;;-147.53;100.00;57128.34;15271607;19;20033;-68
2022/01/19 19:48:49;;;;;;;24.13;4.30;;;;;;;-147.53;100.00;57128.34;15265828;19;20018;-67
2022/01/19 19:53:51;;;;;;;22.05;5.50;;;;;;;-147.53;100.00;57128.34;15271733;19;20615;-67
2022/01/19 19:58:53;;;;;;;21.38;3.17;;;;;;;-147.53;100.00;57128.34;15270488;19;20074;-66
2022/01/19 20:03:54;;;;;;;19.17;4.47;;;;;;;-147.53;100.00;57128.34;15269705;19;20018;-67
2022/01/19 20:08:57;;;;;;;13.48;3.97;;;;;;;-147.53;100.00;57128.34;15271160;19;20022;-67
2022/01/19 20:14:00;;;;;;;34.40;9.38;;;;;;;-147.53;100.00;57128.34;15272399;19;20490;-68
2022/01/19 20:19:03;;;;;;;12.98;3.15;;;;;;;-147.53;100.00;57128.34;15269631;19;20039;-70
2022/01/19 20:24:05;;;;;;;18.15;3.38;;;;;;;-147.53;100.00;57128.34;15268944;19;20121;-68
2022/01/19 20:29:07;;;;;;;20.83;3.53;;;;;;;-147.53;100.00;57128.34;15266345;19;20014;-67
2022/01/19 20:34:09;;;;;;;10.80;2.42;;;;;;;-147.53;100.00;57128.34;15271097;19;20014;-67
2022/01/19 20:39:14;;;;;;;13.45;3.30;;;;;;;-147.53;100.00;57128.34;15267410;19;20106;-66
2022/01/19 20:44:18;;;;;;;19.20;1.92;;;;;;;-147.53;100.00;57128.34;15267264;19;20042;-67
2022/01/19 20:49:20;;;;;;;26.85;3.13;;;;;;;-147.53;100.00;57128.34;15269087;19;20027;-67
2022/01/19 20:54:22;;;;;;;23.08;2.80;;;;;;;-147.53;100.00;57128.34;15262885;19;20010;-67
2022/01/19 20:59:24;;;;;;;14.52;1.70;;;;;;;-147.53;100.00;57128.34;15264546;19;20512;-67
2022/01/19 21:04:25;;;;;;;15.10;1.55;;;;;;;-147.53;100.00;57128.34;15265979;19;20078;-67
2022/01/19 21:09:28;;;;;;;14.07;2.63;;;;;;;-147.53;100.00;57128.34;15264284;19;20011;-67
2022/01/19 21:14:30;;;;;;;20.65;3.15;;;;;;;-147.53;100.00;57128.34;15278374;19;20081;-66
2022/01/19 21:19:32;;;;;;;17.98;2.85;;;;;;;-147.53;100.00;57128.34;15286645;19;20010;-67
2022/01/19 21:24:34;;;;;;;18.75;2.75;;;;;;;-147.53;100.00;57128.34;15276826;19;20405;-67
2022/01/19 21:29:36;;;;;;;18.05;3.10;;;;;;;-147.53;100.00;57128.34;15279424;19;20042;-67
2022/01/19 21:34:38;;;;;;;18.38;2.85;;;;;;;-147.53;100.00;57128.34;15259004;19;20022;-67
2022/01/19 21:39:39;;;;;;;17.27;2.78;;;;;;;-147.53;100.00;57128.34;15281026;19;20098;-67
2022/01/19 21:44:42;;;;;;;14.10;1.95;;;;;;;-147.53;100.00;57128.34;15271773;19;20106;-66
2022/01/19 21:49:44;;;;;;;19.20;2.60;;;;;;;-147.53;100.00;57128.34;15273063;19;20039;-67
2022/01/19 21:54:46;;;;;;;21.98;2.70;;;;;;;-147.53;100.00;57128.34;15276692;19;20090;-67
2022/01/19 21:59:48;;;;;;;17.17;2.45;;;;;;;-147.53;100.00;57128.34;15278126;19;20006;-67
2022/01/19 22:04:50;;;;;;;17.95;2.13;;;;;;;-147.53;100.00;57128.34;15275459;19;20018;-67
2022/01/19 22:09:53;;;;;;;19.48;2.33;;;;;;;-147.53;100.00;57128.34;15275158;19;20032;-67
2022/01/19 22:14:55;;;;;;;16.38;2.30;;;;;;;-147.53;100.00;57128.34;15275528;19;20026;-67
2022/01/19 22:19:56;;;;;;;17.08;2.63;;;;;;;-147.53;100.00;57128.34;15274963;19;20514;-67
2022/01/19 22:24:58;;;;;;;20.77;3.30;;;;;;;-147.53;100.00;57128.34;15271093;19;20019;-67
2022/01/19 22:30:02;;;;;;;11.52;1.40;;;;;;;-147.53;100.00;57128.34;15272728;19;20026;-67
2022/01/19 22:35:05;;;;;;;14.88;2.08;;;;;;;-147.53;100.00;57128.34;15272346;19;20019;-67
2022/01/19 22:40:08;;;;;;;17.15;2.03;;;;;;;-147.53;100.00;57128.34;15276096;19;20043;-67
2022/01/19 22:45:10;;;;;;;14.75;2.38;;;;;;;-147.53;100.00;57128.34;15275156;19;20035;-67
2022/01/19 22:50:16;;;;;;;23.10;2.78;;;;;;;-147.53;100.00;57128.34;15277343;19;20027;-66
2022/01/19 22:55:17;;;;;;;25.70;3.63;;;;;;;-147.53;100.00;57128.34;15272398;19;20093;-67
2022/01/19 23:00:22;;;;;;;19.27;2.00;;;;;;;-147.53;100.00;57128.34;15276131;19;20530;-65
2022/01/19 23:05:24;;;;;;;15.50;3.10;;;;;;;-147.53;100.00;57128.34;15275521;19;20304;-67
2022/01/19 23:10:26;;;;;;;18.02;2.63;;;;;;;-147.53;100.00;57128.34;15272395;19;20018;-67
2022/01/19 23:15:31;;;;;;;20.15;2.15;;;;;;;-147.53;100.00;57128.34;15276070;19;20030;-67
2022/01/19 23:20:33;;;;;;;12.45;1.80;;;;;;;-147.53;100.00;57128.34;15271189;19;20038;-66
2022/01/19 23:25:35;;;;;;;15.32;1.98;;;;;;;-147.53;100.00;57128.34;15267937;19;20386;-67
2022/01/19 23:30:37;;;;;;;14.55;2.30;;;;;;;-147.53;100.00;57128.34;15267113;19;20030;-68
2022/01/19 23:35:40;;;;;;;17.52;2.42;;;;;;;-147.53;100.00;57128.34;15272534;19;20120;-66
2022/01/19 23:51:22;;;;;;;;;;;;;;;-147.53;100.00;57128.34;15273396;19;20007;-66
2022/01/19 23:56:31;;;;;;;15.80;1.92;;;;;;;-147.53;100.00;57128.34;15265214;19;19947;-67
